Terminal Aerodrome Forecast
Issued by NWS Bismarck, ND

Home | Current Version | Previous Version | Text Only | Print | Product List | Glossary Off
Versions: 1 2 3 4 5 6 7 8 9 10 11 12 13 14 15

000
FTUS43 KBIS 202300
TAFISN
TAF
KISN 202320Z 2100/2124 28022G35KT P6SM FEW100
     FM210200 28014KT P6SM FEW250
     FM211200 31009KT P6SM FEW035
     FM212200 01006KT P6SM FEW200=

USA.gov is the U.S. government's official web portal to all federal, state and local government web resources and services.